Time;durP1;ratioP1;P1;durP2;ratioP2;P2;SDS_P1;SDS_P2;PMS_P1;PMS_P2;Temp;Humidity;BMP_temperature;BMP_pressure;BME280_temperature;BME280_humidity;BME280_pressure;Samples;Min_cycle;Max_cycle;Signal;HPM_P1;HPM_P2
2023/03/22 00:00:51;;;;;;;14.77;1.85;;;8.30;99.90;;;;;;5010983;28;20034;-75
2023/03/22 00:03:17;;;;;;;10.18;2.05;;;8.30;99.90;;;;;;5011100;28;20046;-76
2023/03/22 00:05:43;;;;;;;6.30;1.48;;;8.40;99.90;;;;;;5005240;28;20034;-79
2023/03/22 00:08:12;;;;;;;11.23;2.07;;;8.40;99.90;;;;;;5008910;28;20033;-79
2023/03/22 00:10:39;;;;;;;11.43;1.65;;;8.40;99.90;;;;;;5005721;28;20023;-79
2023/03/22 00:13:06;;;;;;;14.10;3.05;;;8.40;99.90;;;;;;5010622;28;20026;-78
2023/03/22 00:15:32;;;;;;;8.60;1.73;;;8.40;99.90;;;;;;5012701;28;20030;-75
2023/03/22 00:17:59;;;;;;;8.90;1.75;;;8.40;99.90;;;;;;4996351;28;20314;-79
2023/03/22 00:20:36;;;;;;;9.00;1.50;;;8.40;99.90;;;;;;5011044;28;20049;-79
2023/03/22 00:23:01;;;;;;;11.27;1.88;;;8.40;99.90;;;;;;5015204;28;20302;-81
2023/03/22 00:25:27;;;;;;;13.73;1.50;;;8.40;99.90;;;;;;5012288;28;20429;-74
2023/03/22 00:27:53;;;;;;;13.47;1.53;;;8.40;99.90;;;;;;5014394;28;20040;-77
2023/03/22 00:30:18;;;;;;;8.60;1.40;;;8.40;99.90;;;;;;5008536;28;20380;-76
2023/03/22 00:32:44;;;;;;;12.67;2.30;;;8.40;99.90;;;;;;4997210;28;20038;-80
2023/03/22 00:35:11;;;;;;;10.47;2.13;;;8.40;99.90;;;;;;5009863;28;20034;-78
2023/03/22 00:37:37;;;;;;;14.85;2.50;;;8.50;99.90;;;;;;5011552;28;20037;-80
2023/03/22 00:40:10;;;;;;;11.27;2.13;;;8.50;99.90;;;;;;5014140;28;20417;-77
2023/03/22 00:42:36;;;;;;;11.05;1.67;;;8.50;99.90;;;;;;5012760;28;20053;-78
2023/03/22 00:45:03;;;;;;;9.90;1.80;;;8.50;99.90;;;;;;5010712;28;20029;-77
2023/03/22 00:47:28;;;;;;;8.40;2.40;;;8.50;99.90;;;;;;5012580;28;20046;-80
2023/03/22 00:49:54;;;;;;;14.53;3.07;;;8.50;99.90;;;;;;5010769;28;20488;-74
2023/03/22 00:52:20;;;;;;;6.53;1.37;;;8.50;99.90;;;;;;4994920;28;20030;-80
2023/03/22 00:54:46;;;;;;;8.05;2.03;;;8.60;99.90;;;;;;5010600;28;20030;-76
2023/03/22 00:57:13;;;;;;;13.30;1.77;;;8.60;99.90;;;;;;5014148;28;20029;-78
2023/03/22 00:59:39;;;;;;;8.60;1.70;;;8.60;99.90;;;;;;4995481;28;20284;-75
2023/03/22 01:02:05;;;;;;;12.35;2.25;;;8.70;99.90;;;;;;5007386;28;20042;-75
2023/03/22 01:04:34;;;;;;;10.18;2.00;;;8.70;99.90;;;;;;5005783;28;20033;-80
2023/03/22 01:07:02;;;;;;;12.52;1.92;;;8.70;99.90;;;;;;4995210;28;20031;-80
2023/03/22 01:09:30;;;;;;;8.75;1.45;;;8.80;99.90;;;;;;4992567;28;20421;-80
2023/03/22 01:12:00;;;;;;;9.45;2.30;;;8.80;99.90;;;;;;5012694;28;20409;-78
2023/03/22 01:14:27;;;;;;;12.57;1.60;;;8.80;99.90;;;;;;5009963;28;20036;-78
2023/03/22 01:16:56;;;;;;;10.77;1.77;;;8.80;99.90;;;;;;5014338;28;20025;-75
2023/03/22 01:19:26;;;;;;;12.05;2.17;;;8.80;99.90;;;;;;5005013;28;20062;-75
2023/03/22 01:21:52;;;;;;;4.82;1.67;;;8.80;99.90;;;;;;4987117;28;20026;-74
2023/03/22 01:24:19;;;;;;;9.27;1.92;;;8.80;99.90;;;;;;4991369;28;20034;-79
2023/03/22 01:26:45;;;;;;;7.03;1.55;;;8.80;99.90;;;;;;4992831;28;20335;-79
2023/03/22 01:29:11;;;;;;;10.00;2.43;;;8.80;99.90;;;;;;5005882;28;20026;-65
2023/03/22 01:31:36;;;;;;;11.73;2.30;;;8.80;99.90;;;;;;5010093;28;20026;-66
2023/03/22 01:34:02;;;;;;;10.17;1.87;;;8.80;99.90;;;;;;5005396;28;20030;-75
2023/03/22 01:36:28;;;;;;;8.20;2.03;;;8.80;99.90;;;;;;5003956;28;20026;-80
2023/03/22 01:38:54;;;;;;;21.13;2.60;;;8.80;99.90;;;;;;5003499;28;20332;-77
2023/03/22 01:41:20;;;;;;;12.03;2.80;;;8.80;99.90;;;;;;4976585;28;20042;-80
2023/03/22 01:44:13;;;;;;;13.25;3.17;;;8.80;99.90;;;;;;5009604;28;20041;-72
2023/03/22 01:46:43;;;;;;;6.45;1.60;;;8.80;99.90;;;;;;5002994;28;20321;-77
2023/03/22 01:49:15;;;;;;;8.55;1.98;;;8.80;99.90;;;;;;5001263;28;20033;-78
2023/03/22 01:51:43;;;;;;;10.18;2.47;;;8.80;99.90;;;;;;5011338;28;20026;-79
2023/03/22 01:54:15;;;;;;;9.52;1.80;;;8.80;99.90;;;;;;5006141;28;20030;-79
2023/03/22 01:56:41;;;;;;;6.25;1.92;;;8.70;99.90;;;;;;5008243;28;20034;-79
2023/03/22 01:59:11;;;;;;;7.15;1.67;;;8.70;99.90;;;;;;5014096;28;20109;-78
2023/03/22 02:01:37;;;;;;;4.90;1.75;;;8.70;99.90;;;;;;5007971;28;20038;-77
2023/03/22 02:04:14;;;;;;;7.73;2.17;;;8.70;99.90;;;;;;5001949;28;20037;-77
2023/03/22 02:06:40;;;;;;;9.00;1.77;;;8.70;99.90;;;;;;5008589;28;20501;-78
2023/03/22 02:09:09;;;;;;;11.50;2.20;;;8.70;99.90;;;;;;5013085;28;20068;-79
2023/03/22 02:11:41;;;;;;;4.97;1.55;;;8.70;99.90;;;;;;5006313;28;20121;-79
2023/03/22 02:14:36;;;;;;;7.50;1.35;;;8.70;99.90;;;;;;5012331;28;20030;-77
2023/03/22 02:17:43;;;;;;;10.75;2.03;;;8.70;99.90;;;;;;4982426;28;20053;-78
2023/03/22 02:20:27;;;;;;;6.78;1.70;;;8.70;99.90;;;;;;5013591;28;20302;-78
2023/03/22 02:23:29;;;;;;;6.13;1.38;;;8.80;99.90;;;;;;5005151;28;20038;-79
2023/03/22 02:26:13;;;;;;;7.63;1.52;;;8.80;99.90;;;;;;5013962;28;20673;-76
2023/03/22 02:29:11;;;;;;;9.07;1.67;;;8.80;99.90;;;;;;5009753;28;20038;-78
2023/03/22 02:32:01;;;;;;;6.00;1.40;;;8.90;99.90;;;;;;5007716;28;20496;-78
2023/03/22 02:34:41;;;;;;;6.47;2.17;;;8.90;99.90;;;;;;5010319;28;20036;-78
2023/03/22 02:37:10;;;;;;;14.10;2.47;;;8.90;99.90;;;;;;5009481;28;20333;-79
2023/03/22 02:40:15;;;;;;;11.63;2.80;;;8.90;99.90;;;;;;4992929;28;20030;-79
2023/03/22 02:42:49;;;;;;;9.70;3.07;;;9.00;99.90;;;;;;5011398;28;20124;-79
2023/03/22 02:45:26;;;;;;;13.55;3.13;;;9.00;99.90;;;;;;5011713;28;20021;-77
2023/03/22 02:48:17;;;;;;;8.80;2.72;;;9.00;99.90;;;;;;5004006;28;20045;-77
2023/03/22 02:51:06;;;;;;;16.70;3.22;;;9.10;99.90;;;;;;5013175;28;20027;-76
2023/03/22 02:53:51;;;;;;;7.93;3.50;;;9.20;99.90;;;;;;4991348;28;20064;-77
2023/03/22 02:56:28;;;;;;;8.95;3.58;;;9.20;99.90;;;;;;5016822;28;20044;-75
2023/03/22 02:58:58;;;;;;;10.15;3.58;;;9.20;99.90;;;;;;5010247;28;20329;-78
2023/03/22 03:01:53;;;;;;;11.95;3.60;;;9.20;99.90;;;;;;5017819;28;20021;-77
2023/03/22 03:04:25;;;;;;;8.55;3.47;;;9.20;99.90;;;;;;4994078;28;20471;-78
2023/03/22 03:06:56;;;;;;;15.00;4.05;;;9.20;99.90;;;;;;4997210;28;20058;-78
2023/03/22 03:09:23;;;;;;;34.40;4.78;;;9.20;99.90;;;;;;5016899;28;20343;-79
2023/03/22 03:11:52;;;;;;;14.57;4.57;;;9.10;99.90;;;;;;5015694;28;20356;-76
2023/03/22 03:14:26;;;;;;;12.07;5.53;;;9.10;99.90;;;;;;4998687;28;20030;-77
2023/03/22 03:17:18;;;;;;;11.30;4.45;;;9.10;99.90;;;;;;5017789;28;20034;-79
2023/03/22 03:20:02;;;;;;;10.30;5.32;;;9.10;99.90;;;;;;4996475;28;20078;-75
2023/03/22 03:22:57;;;;;;;12.90;5.47;;;9.00;99.90;;;;;;4996861;28;20424;-74
2023/03/22 03:25:22;;;;;;;16.60;6.03;;;9.00;99.90;;;;;;4980914;28;20318;-75
2023/03/22 03:28:07;;;;;;;12.40;5.60;;;9.00;99.90;;;;;;5016924;28;20089;-77
2023/03/22 03:30:42;;;;;;;15.63;6.20;;;9.10;99.90;;;;;;5003659;28;20018;-63
2023/03/22 03:33:12;;;;;;;14.10;5.82;;;9.00;99.90;;;;;;5012059;28;20302;-64
2023/03/22 03:35:45;;;;;;;14.02;6.38;;;9.00;99.90;;;;;;5010240;28;20033;-64
2023/03/22 03:38:22;;;;;;;11.60;5.97;;;9.00;99.90;;;;;;5012673;28;20041;-64
2023/03/22 03:40:53;;;;;;;13.23;6.55;;;9.00;99.90;;;;;;5010743;28;20032;-64
2023/03/22 03:43:19;;;;;;;16.52;6.32;;;9.00;99.90;;;;;;5015247;28;20420;-64
2023/03/22 03:45:45;;;;;;;22.83;7.05;;;9.00;99.90;;;;;;5014530;28;20022;-64
2023/03/22 03:48:21;;;;;;;15.85;7.85;;;9.00;99.90;;;;;;4999038;28;20089;-65
2023/03/22 03:50:49;;;;;;;14.65;7.15;;;9.00;99.90;;;;;;5009629;28;20064;-65
2023/03/22 03:53:15;;;;;;;16.75;7.50;;;9.00;99.90;;;;;;5015198;28;20445;-65
2023/03/22 03:55:41;;;;;;;22.97;7.73;;;9.00;99.90;;;;;;5008462;28;20053;-78
2023/03/22 03:58:10;;;;;;;19.00;7.00;;;9.00;99.90;;;;;;5016331;28;20089;-65
2023/03/22 04:00:37;;;;;;;15.63;7.10;;;9.00;99.90;;;;;;5016413;28;20034;-76
2023/03/22 04:03:04;;;;;;;20.05;8.25;;;9.00;99.90;;;;;;5012527;28;20037;-64
2023/03/22 04:05:30;;;;;;;17.85;6.90;;;9.00;99.90;;;;;;5014594;28;20033;-64
2023/03/22 04:07:56;;;;;;;22.43;7.57;;;9.00;99.90;;;;;;5010556;28;20029;-64
2023/03/22 04:10:22;;;;;;;17.40;7.57;;;9.00;99.90;;;;;;5016033;28;20149;-65
2023/03/22 04:12:48;;;;;;;16.63;8.05;;;9.10;99.90;;;;;;5007658;28;20056;-65
2023/03/22 04:15:13;;;;;;;22.27;7.90;;;9.10;99.90;;;;;;5005761;28;20029;-65
2023/03/22 04:17:40;;;;;;;14.73;8.10;;;9.00;99.90;;;;;;5008577;28;20426;-65
2023/03/22 04:20:08;;;;;;;15.93;8.43;;;9.00;99.90;;;;;;4994700;28;20030;-64
2023/03/22 04:22:37;;;;;;;24.00;9.13;;;9.00;99.90;;;;;;5006940;28;20057;-77
2023/03/22 04:25:10;;;;;;;17.92;8.73;;;9.00;99.90;;;;;;5001664;28;20361;-65
2023/03/22 04:27:40;;;;;;;19.23;8.88;;;9.00;99.90;;;;;;5002530;28;20030;-74
2023/03/22 04:30:09;;;;;;;15.77;7.40;;;9.00;99.90;;;;;;5016159;28;20026;-64
2023/03/22 04:32:36;;;;;;;18.42;9.45;;;9.00;99.90;;;;;;5015939;28;20064;-64
2023/03/22 04:35:04;;;;;;;19.48;9.50;;;9.00;99.90;;;;;;5014815;28;20317;-64
2023/03/22 04:37:32;;;;;;;16.73;8.13;;;9.00;99.90;;;;;;5007638;28;20030;-64
2023/03/22 04:39:58;;;;;;;20.95;8.48;;;9.00;99.90;;;;;;5013478;28;20057;-65
2023/03/22 04:42:25;;;;;;;23.25;8.82;;;9.10;99.90;;;;;;5016152;28;20033;-65
2023/03/22 04:44:51;;;;;;;22.70;8.38;;;9.00;99.90;;;;;;5015891;28;20030;-77
2023/03/22 04:47:17;;;;;;;25.07;9.37;;;9.00;99.90;;;;;;5004137;28;20026;-66
2023/03/22 04:49:43;;;;;;;22.42;9.40;;;9.10;99.90;;;;;;5015771;28;20259;-65
2023/03/22 04:52:10;;;;;;;22.88;10.10;;;9.10;99.90;;;;;;5014550;28;20052;-65
2023/03/22 04:54:36;;;;;;;16.42;8.70;;;9.10;99.90;;;;;;5015941;28;20443;-74
2023/03/22 04:57:02;;;;;;;25.65;9.88;;;9.10;99.90;;;;;;5011592;28;20042;-64
2023/03/22 04:59:28;;;;;;;22.23;9.02;;;9.10;99.90;;;;;;5012149;28;20033;-64
2023/03/22 05:01:54;;;;;;;18.60;8.37;;;9.10;99.90;;;;;;5011072;28;20064;-73
2023/03/22 05:04:20;;;;;;;22.07;9.07;;;9.10;99.90;;;;;;5008916;28;20405;-65
2023/03/22 05:06:46;;;;;;;18.73;8.45;;;9.10;99.90;;;;;;4993443;28;20382;-65
2023/03/22 05:09:13;;;;;;;18.20;9.00;;;9.10;99.90;;;;;;4989521;28;20033;-64
2023/03/22 05:11:39;;;;;;;24.95;9.00;;;9.10;99.90;;;;;;5006573;28;20284;-64
2023/03/22 05:14:06;;;;;;;20.00;8.20;;;9.10;99.90;;;;;;5010051;28;20063;-65
2023/03/22 05:16:32;;;;;;;23.50;9.90;;;9.10;99.90;;;;;;5012010;28;20034;-64
2023/03/22 05:19:01;;;;;;;21.52;9.10;;;9.10;99.90;;;;;;5004152;28;20034;-65
2023/03/22 05:21:28;;;;;;;18.80;8.05;;;9.10;99.90;;;;;;5014615;28;20037;-65
2023/03/22 05:23:57;;;;;;;18.15;8.07;;;9.20;99.90;;;;;;5011256;28;20377;-65
2023/03/22 05:26:25;;;;;;;17.23;7.75;;;9.20;99.90;;;;;;5013928;28;20036;-75
2023/03/22 05:28:54;;;;;;;15.95;7.70;;;9.20;99.90;;;;;;5005918;28;20021;-64
2023/03/22 05:31:21;;;;;;;16.08;8.48;;;9.20;99.90;;;;;;5010755;28;20026;-65
2023/03/22 05:33:49;;;;;;;17.60;8.77;;;9.30;99.90;;;;;;5012191;28;20305;-64
2023/03/22 05:36:16;;;;;;;16.00;7.57;;;9.30;99.90;;;;;;5010918;28;20358;-65
2023/03/22 05:38:43;;;;;;;17.80;7.25;;;9.30;99.90;;;;;;5010092;28;20030;-65
2023/03/22 05:41:09;;;;;;;15.57;7.40;;;9.30;99.90;;;;;;5010740;28;20133;-64
2023/03/22 05:43:36;;;;;;;16.05;7.65;;;9.30;99.90;;;;;;5014485;28;20081;-64
2023/03/22 05:46:06;;;;;;;17.45;7.57;;;9.30;99.90;;;;;;5013273;28;20101;-65
2023/03/22 05:48:32;;;;;;;25.20;7.68;;;9.40;99.90;;;;;;5011918;28;20026;-64
2023/03/22 05:50:57;;;;;;;23.20;7.27;;;9.30;99.90;;;;;;5012414;28;20049;-65
2023/03/22 05:53:23;;;;;;;15.93;7.10;;;9.30;99.90;;;;;;5014793;28;20153;-65
2023/03/22 05:55:49;;;;;;;18.43;7.00;;;9.30;99.90;;;;;;5000967;28;20324;-65
2023/03/22 05:58:17;;;;;;;19.77;7.00;;;9.30;99.90;;;;;;5009675;28;20440;-64
2023/03/22 06:00:44;;;;;;;12.88;5.72;;;9.30;99.90;;;;;;5011527;28;21595;-75
2023/03/22 06:03:10;;;;;;;13.98;5.55;;;9.30;99.90;;;;;;5005768;28;20400;-63
2023/03/22 06:05:36;;;;;;;13.80;6.27;;;9.30;99.90;;;;;;5006705;28;20026;-63
2023/03/22 06:08:03;;;;;;;22.83;5.77;;;9.40;99.90;;;;;;5004781;28;20173;-63
2023/03/22 06:10:29;;;;;;;;;;;9.30;99.90;;;;;;5008058;28;20030;-64
2023/03/22 06:12:55;;;;;;;13.23;6.07;;;9.40;99.90;;;;;;5004566;28;19945;-64
2023/03/22 06:15:20;;;;;;;14.77;5.33;;;9.40;99.90;;;;;;5008739;28;20064;-65
2023/03/22 06:17:47;;;;;;;15.40;5.43;;;9.40;99.90;;;;;;5005121;28;20045;-71
2023/03/22 06:20:14;;;;;;;21.20;6.18;;;9.40;99.90;;;;;;5009127;28;20022;-65
2023/03/22 06:22:40;;;;;;;13.73;4.90;;;9.40;99.90;;;;;;5003579;28;20030;-64
2023/03/22 06:25:07;;;;;;;10.87;5.10;;;9.50;99.90;;;;;;5009856;28;20032;-63
2023/03/22 06:27:33;;;;;;;15.70;4.85;;;9.50;99.90;;;;;;5003940;28;20105;-65
2023/03/22 06:29:59;;;;;;;16.88;4.38;;;9.60;99.90;;;;;;5007666;28;20329;-65
2023/03/22 06:32:26;;;;;;;8.40;3.78;;;9.60;99.90;;;;;;5000626;28;20105;-64
2023/03/22 06:34:55;;;;;;;14.93;4.43;;;9.70;99.90;;;;;;5000507;28;20433;-78
2023/03/22 06:37:22;;;;;;;8.18;3.75;;;9.70;99.90;;;;;;5005318;28;20042;-64
2023/03/22 06:39:47;;;;;;;12.50;3.42;;;9.80;99.90;;;;;;4988735;28;20045;-64
2023/03/22 06:42:14;;;;;;;14.63;3.30;;;9.80;99.90;;;;;;5006744;28;20041;-64
2023/03/22 06:44:42;;;;;;;11.35;3.53;;;9.90;99.90;;;;;;5011761;28;20077;-65
2023/03/22 06:47:08;;;;;;;10.32;3.28;;;10.00;99.90;;;;;;5004478;28;20050;-63
2023/03/22 06:49:34;;;;;;;14.33;3.23;;;10.00;99.90;;;;;;5004490;28;20061;-65
2023/03/22 06:52:00;;;;;;;13.47;2.73;;;10.10;99.90;;;;;;5007104;28;20049;-64
2023/03/22 06:54:26;;;;;;;19.70;3.37;;;10.10;99.90;;;;;;5003496;28;20444;-65
2023/03/22 06:56:52;;;;;;;9.87;2.70;;;10.10;99.90;;;;;;5004687;28;20260;-63
2023/03/22 06:59:18;;;;;;;8.53;2.60;;;10.10;99.90;;;;;;5006646;28;20064;-75
2023/03/22 07:01:43;;;;;;;14.07;2.93;;;10.10;99.90;;;;;;4991861;28;20410;-64
2023/03/22 07:04:09;;;;;;;10.27;2.13;;;10.10;99.90;;;;;;5006869;28;20030;-64
2023/03/22 07:06:35;;;;;;;8.83;2.07;;;10.10;99.90;;;;;;4986738;28;20029;-76
2023/03/22 07:09:01;;;;;;;6.20;1.63;;;10.10;99.90;;;;;;5002813;28;20468;-64
2023/03/22 07:11:27;;;;;;;10.30;2.40;;;10.10;99.90;;;;;;5007741;28;20042;-63
2023/03/22 07:13:54;;;;;;;7.63;2.40;;;10.00;99.90;;;;;;5005018;28;20029;-64
2023/03/22 07:16:20;;;;;;;12.90;2.22;;;10.10;99.90;;;;;;5003319;28;20310;-70
2023/03/22 07:18:47;;;;;;;5.93;1.70;;;10.00;99.90;;;;;;5011468;28;20141;-70
2023/03/22 07:21:13;;;;;;;10.90;1.92;;;10.10;99.90;;;;;;5004178;28;20031;-64
2023/03/22 07:23:39;;;;;;;8.00;1.83;;;10.10;99.90;;;;;;5017320;28;20038;-64
2023/03/22 07:26:05;;;;;;;11.27;4.13;;;10.30;99.90;;;;;;5009830;28;20034;-64
2023/03/22 07:28:30;;;;;;;15.53;6.87;;;10.40;99.90;;;;;;5007526;28;20322;-63
2023/03/22 07:31:05;;;;;;;8.73;2.47;;;10.50;99.90;;;;;;4999707;28;20033;-64
2023/03/22 07:33:31;;;;;;;14.27;5.97;;;10.60;99.90;;;;;;5003418;28;20344;-64
2023/03/22 07:35:57;;;;;;;;;;;10.60;99.90;;;;;;5001445;28;20046;-64
2023/03/22 07:38:24;;;;;;;8.20;2.07;;;10.60;99.90;;;;;;5005672;28;19919;-64
2023/03/22 07:40:53;;;;;;;10.88;2.58;;;10.50;99.90;;;;;;5005261;28;20570;-75
2023/03/22 07:43:20;;;;;;;6.38;2.22;;;10.60;99.90;;;;;;5002877;28;20058;-65
2023/03/22 07:45:49;;;;;;;8.93;2.47;;;10.60;99.90;;;;;;5002668;28;20381;-63
2023/03/22 07:48:15;;;;;;;9.10;2.22;;;10.60;99.90;;;;;;5004336;28;20022;-64
2023/03/22 07:50:41;;;;;;;7.57;2.38;;;10.60;99.90;;;;;;5003812;28;20023;-64
2023/03/22 07:53:08;;;;;;;11.63;2.07;;;10.70;99.90;;;;;;5004555;28;20093;-65
2023/03/22 07:55:35;;;;;;;18.30;2.55;;;10.70;99.90;;;;;;5007114;28;20033;-77
2023/03/22 07:58:02;;;;;;;15.93;3.53;;;10.70;99.90;;;;;;5006852;28;20077;-77
2023/03/22 08:00:28;;;;;;;;;;;10.70;99.90;;;;;;5010958;28;20425;-64
2023/03/22 08:02:54;;;;;;;6.50;1.90;;;10.70;99.90;;;;;;5001039;28;19959;-65
2023/03/22 08:05:21;;;;;;;18.73;2.67;;;10.70;99.90;;;;;;5010218;28;20406;-65
2023/03/22 08:07:47;;;;;;;;;;;10.70;99.90;;;;;;5008923;28;20050;-64
2023/03/22 08:10:13;;;;;;;16.05;2.92;;;10.70;99.90;;;;;;5011399;28;19920;-65
2023/03/22 08:12:39;;;;;;;9.32;1.67;;;10.70;99.90;;;;;;5004624;28;20046;-65
2023/03/22 08:15:06;;;;;;;10.60;2.40;;;10.70;99.90;;;;;;5008888;28;20050;-77
2023/03/22 08:17:32;;;;;;;5.38;1.88;;;10.70;99.90;;;;;;5003641;28;20026;-64
2023/03/22 08:19:58;;;;;;;8.07;1.77;;;10.70;99.90;;;;;;5006510;28;20421;-65
2023/03/22 08:22:28;;;;;;;8.40;2.53;;;10.70;99.90;;;;;;4998637;28;20030;-65
2023/03/22 08:24:55;;;;;;;11.73;2.40;;;10.80;99.90;;;;;;4997080;28;20084;-64
2023/03/22 08:27:21;;;;;;;8.00;2.13;;;10.80;99.90;;;;;;4982724;28;20299;-64
2023/03/22 08:29:47;;;;;;;11.45;3.85;;;10.90;99.90;;;;;;5010575;28;20026;-64
2023/03/22 08:32:15;;;;;;;18.13;7.40;;;10.90;99.90;;;;;;5005412;28;20026;-75
2023/03/22 08:34:42;;;;;;;14.73;3.08;;;10.90;99.90;;;;;;5012951;28;20105;-65
2023/03/22 08:37:11;;;;;;;10.35;2.75;;;10.90;99.90;;;;;;5007449;28;20026;-64
2023/03/22 08:39:37;;;;;;;11.30;2.67;;;10.90;99.90;;;;;;5015229;28;20032;-72
2023/03/22 08:42:03;;;;;;;10.60;2.78;;;10.80;99.90;;;;;;5006748;28;20040;-65
2023/03/22 08:44:29;;;;;;;8.73;2.58;;;10.80;99.90;;;;;;5012402;28;20089;-65
2023/03/22 08:46:55;;;;;;;8.77;2.33;;;10.70;99.90;;;;;;4995260;28;20049;-64
2023/03/22 08:49:22;;;;;;;12.97;2.80;;;10.70;99.90;;;;;;5007074;28;20370;-64
2023/03/22 08:51:48;;;;;;;22.23;5.32;;;10.70;99.90;;;;;;5005947;28;20347;-65
2023/03/22 08:54:14;;;;;;;7.60;2.63;;;10.60;99.90;;;;;;5011389;28;20388;-64
2023/03/22 08:56:40;;;;;;;6.93;2.83;;;10.60;99.90;;;;;;5007112;28;20026;-63
2023/03/22 08:59:08;;;;;;;11.10;2.40;;;10.50;99.90;;;;;;4991728;28;20041;-63
2023/03/22 09:01:35;;;;;;;8.85;2.97;;;10.50;99.90;;;;;;5000373;28;20094;-74
2023/03/22 09:04:02;;;;;;;9.98;2.50;;;10.40;99.90;;;;;;5001835;28;20424;-64
2023/03/22 09:06:28;;;;;;;;;;;10.40;99.90;;;;;;5013716;28;20025;-64
2023/03/22 09:08:55;;;;;;;12.00;2.50;;;10.30;99.90;;;;;;5010509;28;19910;-78
2023/03/22 09:11:21;;;;;;;;;;;10.30;99.90;;;;;;5009611;28;20050;-78
2023/03/22 09:13:48;;;;;;;11.00;2.30;;;10.30;99.90;;;;;;5007737;28;19914;-76
2023/03/22 09:16:15;;;;;;;10.95;2.63;;;10.30;99.90;;;;;;5008227;28;20751;-78
2023/03/22 09:18:41;;;;;;;10.07;3.65;;;10.30;99.90;;;;;;4997307;28;20026;-76
2023/03/22 09:21:08;;;;;;;9.10;3.58;;;10.30;99.90;;;;;;5013754;28;20030;-77
2023/03/22 09:23:37;;;;;;;32.80;11.23;;;10.30;99.90;;;;;;5014611;28;20044;-74
2023/03/22 09:26:06;;;;;;;14.13;5.22;;;10.30;99.90;;;;;;5006274;28;20084;-76
2023/03/22 09:28:33;;;;;;;11.30;4.03;;;10.30;99.90;;;;;;5001348;28;20050;-76
2023/03/22 09:31:05;;;;;;;8.90;4.65;;;10.20;99.90;;;;;;5005195;28;20051;-77
2023/03/22 09:33:31;;;;;;;7.60;2.50;;;10.20;99.90;;;;;;5002040;28;20365;-75
2023/03/22 09:35:57;;;;;;;8.07;2.42;;;10.10;99.90;;;;;;4999096;28;20045;-67
2023/03/22 09:38:24;;;;;;;11.03;2.77;;;10.10;99.90;;;;;;5013161;28;20033;-78
2023/03/22 09:40:59;;;;;;;;;;;10.10;99.90;;;;;;5002764;28;20034;-76
2023/03/22 09:43:38;;;;;;;9.88;2.72;;;10.10;99.90;;;;;;4998982;28;20328;-79
2023/03/22 09:46:09;;;;;;;7.63;2.53;;;10.10;99.90;;;;;;5006859;28;20060;-83
2023/03/22 09:48:41;;;;;;;7.93;2.45;;;10.10;99.90;;;;;;5005663;28;20512;-75
2023/03/22 09:51:24;;;;;;;9.38;2.33;;;10.10;99.90;;;;;;5011360;28;20018;-76
2023/03/22 09:53:50;;;;;;;6.30;2.65;;;10.10;99.90;;;;;;5006613;28;20037;-76
2023/03/22 09:56:24;;;;;;;6.50;2.43;;;10.10;99.90;;;;;;5008182;28;20085;-76
2023/03/22 09:59:05;;;;;;;11.95;3.45;;;10.10;99.90;;;;;;5011265;28;20271;-75
2023/03/22 10:01:37;;;;;;;11.10;4.53;;;10.10;99.90;;;;;;5005672;28;20109;-76
2023/03/22 10:04:25;;;;;;;18.27;5.32;;;10.10;99.90;;;;;;5004706;28;20062;-80
2023/03/22 10:07:05;;;;;;;12.27;3.42;;;10.10;99.90;;;;;;5007545;28;20413;-79
2023/03/22 10:10:02;;;;;;;14.32;4.72;;;10.10;99.90;;;;;;5004376;28;20022;-74
2023/03/22 10:12:42;;;;;;;11.32;4.10;;;10.20;99.90;;;;;;5001067;28;20046;-78
2023/03/22 10:15:20;;;;;;;12.85;3.05;;;10.20;99.90;;;;;;4991287;28;20057;-79
2023/03/22 10:17:50;;;;;;;20.02;7.10;;;10.20;99.90;;;;;;4989743;28;20038;-76
2023/03/22 10:20:30;;;;;;;12.25;3.80;;;10.20;99.90;;;;;;5005789;28;20422;-77
2023/03/22 10:23:00;;;;;;;15.05;3.80;;;10.20;99.90;;;;;;4997809;28;20037;-76
2023/03/22 10:25:39;;;;;;;14.57;3.78;;;10.20;99.90;;;;;;5006564;28;20473;-84
2023/03/22 10:28:40;;;;;;;9.27;3.80;;;10.10;99.90;;;;;;5003488;28;20061;-77
2023/03/22 10:31:14;;;;;;;12.70;4.32;;;10.10;99.90;;;;;;5007641;28;20073;-77
2023/03/22 10:33:51;;;;;;;10.07;3.30;;;10.10;99.90;;;;;;5008317;28;20049;-82
2023/03/22 10:36:21;;;;;;;11.75;5.25;;;10.10;99.90;;;;;;5010051;28;20038;-67
2023/03/22 10:39:02;;;;;;;11.70;4.50;;;10.10;99.90;;;;;;5007281;28;20492;-77
2023/03/22 10:41:31;;;;;;;12.63;4.13;;;10.10;99.90;;;;;;5011001;28;20040;-77
2023/03/22 10:44:00;;;;;;;13.00;3.05;;;10.20;99.90;;;;;;5004675;28;20339;-81
2023/03/22 10:46:38;;;;;;;15.80;2.83;;;10.20;99.90;;;;;;5001666;28;20416;-78
2023/03/22 10:49:06;;;;;;;8.13;2.83;;;10.30;99.90;;;;;;5013884;28;20331;-76
2023/03/22 10:51:42;;;;;;;10.77;2.83;;;10.30;99.90;;;;;;4992381;28;20077;-82
2023/03/22 10:54:13;;;;;;;16.38;4.70;;;10.40;99.90;;;;;;5005938;28;20033;-78
2023/03/22 10:56:39;;;;;;;7.68;2.83;;;10.50;99.90;;;;;;5005355;28;20094;-75
2023/03/22 10:59:05;;;;;;;9.32;2.85;;;10.50;99.90;;;;;;5001652;28;20431;-78
2023/03/22 11:01:35;;;;;;;8.80;3.10;;;10.60;99.90;;;;;;5008271;28;20034;-82
2023/03/22 11:04:15;;;;;;;6.32;3.47;;;10.60;99.90;;;;;;5011444;28;20026;-75
2023/03/22 11:06:50;;;;;;;13.30;3.53;;;10.60;99.90;;;;;;5016345;28;20029;-77
2023/03/22 11:09:17;;;;;;;9.02;2.90;;;10.70;99.90;;;;;;5010633;28;20321;-77
2023/03/22 11:11:54;;;;;;;11.63;3.00;;;10.60;99.90;;;;;;5000723;28;20517;-75
2023/03/22 11:14:32;;;;;;;13.82;3.58;;;10.60;99.90;;;;;;5001005;28;20446;-79
2023/03/22 11:17:13;;;;;;;11.45;3.55;;;10.70;99.90;;;;;;4988410;28;20165;-75
2023/03/22 11:19:41;;;;;;;13.75;3.00;;;10.70;99.90;;;;;;5004363;28;20440;-80
2023/03/22 11:22:34;;;;;;;9.02;2.55;;;10.70;99.90;;;;;;4998553;28;20022;-77
2023/03/22 11:25:02;;;;;;;10.73;3.13;;;10.80;99.90;;;;;;5010328;28;20033;-78
2023/03/22 11:27:33;;;;;;;10.35;2.85;;;10.80;99.90;;;;;;5008593;28;20022;-77
2023/03/22 11:30:16;;;;;;;12.70;3.08;;;10.80;99.90;;;;;;5016656;28;20081;-74
2023/03/22 11:32:42;;;;;;;13.63;2.92;;;10.90;99.90;;;;;;5007188;28;20074;-76
2023/03/22 11:35:12;;;;;;;21.87;7.90;;;10.90;99.90;;;;;;5005451;28;20361;-75
2023/03/22 11:37:57;;;;;;;51.83;19.92;;;10.80;99.90;;;;;;5013556;28;20021;-76
2023/03/22 11:40:25;;;;;;;39.53;15.73;;;10.80;99.90;;;;;;4996508;28;20034;-79
2023/03/22 11:42:54;;;;;;;42.28;16.35;;;10.70;99.90;;;;;;5005648;28;20026;-81
2023/03/22 11:45:30;;;;;;;26.10;10.38;;;10.70;99.90;;;;;;5004174;28;20034;-75
2023/03/22 11:48:05;;;;;;;8.52;2.80;;;10.70;99.90;;;;;;5008777;28;20114;-77
2023/03/22 11:50:35;;;;;;;9.25;2.88;;;10.60;99.90;;;;;;4994065;28;20026;-75
2023/03/22 11:53:03;;;;;;;5.68;2.85;;;10.60;99.90;;;;;;5004936;28;20448;-75
2023/03/22 11:55:30;;;;;;;8.50;2.95;;;10.60;99.90;;;;;;4985634;28;20117;-79
2023/03/22 11:57:57;;;;;;;5.93;3.03;;;10.60;99.90;;;;;;4992861;28;20436;-76
2023/03/22 12:00:26;;;;;;;7.63;3.20;;;10.60;99.90;;;;;;5000163;28;20047;-81
2023/03/22 12:03:01;;;;;;;6.43;2.47;;;10.60;99.90;;;;;;4988711;28;20033;-77
2023/03/22 12:05:32;;;;;;;7.47;3.17;;;10.70;99.90;;;;;;4974735;28;20148;-74
2023/03/22 12:08:48;;;;;;;8.85;2.97;;;10.70;99.90;;;;;;4988555;28;20049;-78
2023/03/22 12:11:19;;;;;;;5.85;2.45;;;10.70;99.90;;;;;;4949888;28;20782;-78
2023/03/22 12:13:53;;;;;;;8.80;2.38;;;10.70;99.90;;;;;;4927992;28;20098;-76
2023/03/22 12:16:34;;;;;;;6.82;2.53;;;10.70;99.90;;;;;;4932131;28;20426;-76
2023/03/22 12:19:22;;;;;;;8.20;2.83;;;10.60;99.90;;;;;;4970893;28;20034;-76
2023/03/22 12:21:50;;;;;;;8.40;2.47;;;10.70;99.90;;;;;;4966504;28;20045;-76
2023/03/22 12:24:29;;;;;;;7.30;2.40;;;10.70;99.90;;;;;;4967504;28;20031;-76
2023/03/22 12:26:59;;;;;;;5.95;2.80;;;10.70;99.90;;;;;;4959723;28;20027;-74
2023/03/22 12:29:27;;;;;;;6.72;2.88;;;10.70;99.90;;;;;;4963258;28;20437;-77
2023/03/22 12:32:02;;;;;;;9.80;2.58;;;10.70;99.90;;;;;;4977655;28;20031;-78
2023/03/22 12:34:40;;;;;;;13.52;3.42;;;10.70;99.90;;;;;;4971073;28;20046;-75
2023/03/22 12:37:10;;;;;;;13.88;4.07;;;10.70;99.90;;;;;;4965192;28;20330;-77
2023/03/22 12:39:46;;;;;;;23.70;7.53;;;10.80;99.90;;;;;;4966486;28;20183;-79
2023/03/22 12:42:35;;;;;;;9.70;3.85;;;10.80;99.90;;;;;;4959889;28;20042;-76
2023/03/22 12:45:09;;;;;;;8.48;3.60;;;10.80;99.90;;;;;;4928118;28;20034;-79
2023/03/22 12:47:42;;;;;;;7.60;3.15;;;10.80;99.90;;;;;;3223124;28;10000741;-82
2023/03/22 12:50:19;;;;;;;8.15;3.53;;;10.80;99.90;;;;;;4981544;28;20575;-76
2023/03/22 12:52:52;;;;;;;12.57;3.70;;;10.90;99.90;;;;;;4983490;28;20033;-75
2023/03/22 12:55:24;;;;;;;9.25;2.92;;;10.90;99.90;;;;;;4973194;28;20524;-79
2023/03/22 12:57:53;;;;;;;5.35;3.10;;;10.80;99.90;;;;;;5000078;28;20423;-78
2023/03/22 13:00:27;;;;;;;13.05;3.80;;;10.90;99.90;;;;;;5001749;28;20065;-78
2023/03/22 13:03:07;;;;;;;8.20;3.22;;;10.90;99.90;;;;;;5008149;28;20530;-76
2023/03/22 13:05:35;;;;;;;10.32;3.03;;;10.90;99.90;;;;;;4979013;28;20053;-76